sensor_id;sensor_type;location;lat;lon;timestamp;pressure;altitude;pressure_sealevel;temperature;humidity
62926;BME280;55732;52.248;-0.844;2023-04-30T00:02:11;101293.17;;;12.54;69.34
62926;BME280;55732;52.248;-0.844;2023-04-30T00:04:36;101296.35;;;12.52;69.40
62926;BME280;55732;52.248;-0.844;2023-04-30T00:07:02;101297.77;;;12.49;69.54
62926;BME280;55732;52.248;-0.844;2023-04-30T00:09:28;101296.35;;;12.48;69.70
62926;BME280;55732;52.248;-0.844;2023-04-30T00:11:53;101292.81;;;12.47;69.70
62926;BME280;55732;52.248;-0.844;2023-04-30T00:14:19;101292.10;;;12.46;69.67
62926;BME280;55732;52.248;-0.844;2023-04-30T00:16:45;101291.91;;;12.45;69.92
62926;BME280;55732;52.248;-0.844;2023-04-30T00:19:10;101293.85;;;12.43;69.99
62926;BME280;55732;52.248;-0.844;2023-04-30T00:21:36;101291.02;;;12.40;70.00
62926;BME280;55732;52.248;-0.844;2023-04-30T00:24:01;101292.09;;;12.37;70.32
62926;BME280;55732;52.248;-0.844;2023-04-30T00:26:27;101291.00;;;12.33;70.37
62926;BME280;55732;52.248;-0.844;2023-04-30T00:28:52;101291.69;;;12.30;70.52
62926;BME280;55732;52.248;-0.844;2023-04-30T00:31:18;101290.63;;;12.28;70.72
62926;BME280;55732;52.248;-0.844;2023-04-30T00:33:43;101293.29;;;12.26;70.72
62926;BME280;55732;52.248;-0.844;2023-04-30T00:36:08;101291.86;;;12.22;71.00
62926;BME280;55732;52.248;-0.844;2023-04-30T00:38:34;101292.19;;;12.19;71.20
62926;BME280;55732;52.248;-0.844;2023-04-30T00:40:59;101289.02;;;12.15;71.33
62926;BME280;55732;52.248;-0.844;2023-04-30T00:43:25;101291.30;;;12.14;71.41
62926;BME280;55732;52.248;-0.844;2023-04-30T00:45:50;101292.16;;;12.11;71.44
62926;BME280;55732;52.248;-0.844;2023-04-30T00:48:16;101291.62;;;12.08;71.71
62926;BME280;55732;52.248;-0.844;2023-04-30T00:50:42;101289.13;;;12.05;71.74
62926;BME280;55732;52.248;-0.844;2023-04-30T00:53:09;101293.90;;;12.02;71.98
62926;BME280;55732;52.248;-0.844;2023-04-30T00:55:35;101297.77;;;11.98;72.09
62926;BME280;55732;52.248;-0.844;2023-04-30T00:58:00;101294.91;;;11.95;72.17
62926;BME280;55732;52.248;-0.844;2023-04-30T01:00:26;101297.02;;;11.92;72.44
62926;BME280;55732;52.248;-0.844;2023-04-30T01:02:52;101298.96;;;11.88;72.55
62926;BME280;55732;52.248;-0.844;2023-04-30T01:05:18;101297.34;;;11.86;72.66
62926;BME280;55732;52.248;-0.844;2023-04-30T01:07:44;101296.62;;;11.83;72.78
62926;BME280;55732;52.248;-0.844;2023-04-30T01:10:14;101299.09;;;11.80;72.88
62926;BME280;55732;52.248;-0.844;2023-04-30T01:15:35;101303.30;;;11.77;73.21
62926;BME280;55732;52.248;-0.844;2023-04-30T01:18:06;101302.42;;;11.77;73.51
62926;BME280;55732;52.248;-0.844;2023-04-30T01:20:38;101301.38;;;11.78;73.44
62926;BME280;55732;52.248;-0.844;2023-04-30T01:23:36;101301.91;;;11.79;73.44
62926;BME280;55732;52.248;-0.844;2023-04-30T01:26:28;101296.97;;;11.80;73.74
62926;BME280;55732;52.248;-0.844;2023-04-30T01:29:01;101296.44;;;11.82;73.99
62926;BME280;55732;52.248;-0.844;2023-04-30T01:31:27;101295.91;;;11.83;73.87
62926;BME280;55732;52.248;-0.844;2023-04-30T01:33:53;101291.70;;;11.84;73.80
62926;BME280;55732;52.248;-0.844;2023-04-30T01:47:51;101285.37;;;11.93;74.31
62926;BME280;55732;52.248;-0.844;2023-04-30T01:50:49;101286.80;;;11.94;74.31
62926;BME280;55732;52.248;-0.844;2023-04-30T01:53:40;101279.92;;;11.96;74.37
62926;BME280;55732;52.248;-0.844;2023-04-30T01:56:30;101279.75;;;11.98;74.59
62926;BME280;55732;52.248;-0.844;2023-04-30T01:58:56;101277.13;;;12.00;74.72
62926;BME280;55732;52.248;-0.844;2023-04-30T02:01:28;101274.30;;;12.03;74.72
62926;BME280;55732;52.248;-0.844;2023-04-30T02:03:55;101272.70;;;12.05;74.66
62926;BME280;55732;52.248;-0.844;2023-04-30T02:06:21;101270.77;;;12.05;74.66
62926;BME280;55732;52.248;-0.844;2023-04-30T02:08:47;101272.01;;;12.04;74.72
62926;BME280;55732;52.248;-0.844;2023-04-30T02:11:12;101270.23;;;12.04;74.70
62926;BME280;55732;52.248;-0.844;2023-04-30T02:13:37;101273.78;;;12.04;74.95
62926;BME280;55732;52.248;-0.844;2023-04-30T02:16:04;101273.78;;;12.01;74.85
62926;BME280;55732;52.248;-0.844;2023-04-30T02:18:29;101276.95;;;12.00;74.78
62926;BME280;55732;52.248;-0.844;2023-04-30T02:20:55;101276.75;;;11.98;74.89
62926;BME280;55732;52.248;-0.844;2023-04-30T02:23:20;101272.87;;;11.97;74.94
62926;BME280;55732;52.248;-0.844;2023-04-30T02:25:46;101274.98;;;11.95;75.11
62926;BME280;55732;52.248;-0.844;2023-04-30T02:28:11;101279.37;;;11.92;75.05
62926;BME280;55732;52.248;-0.844;2023-04-30T02:30:36;101280.95;;;11.88;75.05
62926;BME280;55732;52.248;-0.844;2023-04-30T02:33:02;101277.92;;;11.84;74.98
62926;BME280;55732;52.248;-0.844;2023-04-30T02:35:27;101279.15;;;11.81;75.13
62926;BME280;55732;52.248;-0.844;2023-04-30T02:37:53;101281.44;;;11.77;75.21
62926;BME280;55732;52.248;-0.844;2023-04-30T02:40:18;101280.16;;;11.75;75.12
62926;BME280;55732;52.248;-0.844;2023-04-30T02:42:43;101281.73;;;11.72;75.04
62926;BME280;55732;52.248;-0.844;2023-04-30T02:45:09;101278.00;;;11.68;74.88
62926;BME280;55732;52.248;-0.844;2023-04-30T02:47:35;101276.22;;;11.65;75.01
62926;BME280;55732;52.248;-0.844;2023-04-30T02:50:00;101274.27;;;11.62;75.03
62926;BME280;55732;52.248;-0.844;2023-04-30T02:52:25;101273.88;;;11.58;75.09
62926;BME280;55732;52.248;-0.844;2023-04-30T02:54:51;101276.86;;;11.54;75.12
62926;BME280;55732;52.248;-0.844;2023-04-30T02:57:16;101272.77;;;11.49;75.01
62926;BME280;55732;52.248;-0.844;2023-04-30T02:59:42;101274.50;;;11.45;75.06
62926;BME280;55732;52.248;-0.844;2023-04-30T03:02:10;101278.90;;;11.41;75.22
62926;BME280;55732;52.248;-0.844;2023-04-30T03:04:35;101276.05;;;11.38;75.16
62926;BME280;55732;52.248;-0.844;2023-04-30T03:07:01;101278.66;;;11.34;75.03
62926;BME280;55732;52.248;-0.844;2023-04-30T03:09:29;101277.95;;;11.30;74.93
62926;BME280;55732;52.248;-0.844;2023-04-30T03:11:55;101280.91;;;11.27;75.01
62926;BME280;55732;52.248;-0.844;2023-04-30T03:14:21;101285.99;;;11.23;74.88
62926;BME280;55732;52.248;-0.844;2023-04-30T03:16:46;101284.73;;;11.18;74.86
62926;BME280;55732;52.248;-0.844;2023-04-30T03:19:11;101288.23;;;11.15;74.95
62926;BME280;55732;52.248;-0.844;2023-04-30T03:21:37;101284.85;;;11.12;75.00
62926;BME280;55732;52.248;-0.844;2023-04-30T03:24:02;101286.42;;;11.08;74.98
62926;BME280;55732;52.248;-0.844;2023-04-30T03:26:28;101286.89;;;11.03;75.09
62926;BME280;55732;52.248;-0.844;2023-04-30T03:28:53;101288.45;;;10.99;75.18
62926;BME280;55732;52.248;-0.844;2023-04-30T03:31:20;101288.06;;;10.95;75.15
62926;BME280;55732;52.248;-0.844;2023-04-30T03:33:45;101286.09;;;10.92;75.25
62926;BME280;55732;52.248;-0.844;2023-04-30T03:36:10;101289.39;;;10.88;75.25
62926;BME280;55732;52.248;-0.844;2023-04-30T03:38:37;101283.39;;;10.83;75.44
62926;BME280;55732;52.248;-0.844;2023-04-30T03:41:02;101285.28;;;10.79;75.43
62926;BME280;55732;52.248;-0.844;2023-04-30T03:43:28;101288.06;;;10.76;75.51
62926;BME280;55732;52.248;-0.844;2023-04-30T03:45:53;101286.98;;;10.72;75.50
62926;BME280;55732;52.248;-0.844;2023-04-30T03:48:19;101285.70;;;10.68;75.67
62926;BME280;55732;52.248;-0.844;2023-04-30T03:50:44;101288.14;;;10.66;75.79
62926;BME280;55732;52.248;-0.844;2023-04-30T03:53:10;101286.54;;;10.63;75.93
62926;BME280;55732;52.248;-0.844;2023-04-30T03:55:36;101286.88;;;10.60;75.98
62926;BME280;55732;52.248;-0.844;2023-04-30T03:58:01;101289.83;;;10.58;76.02
62926;BME280;55732;52.248;-0.844;2023-04-30T04:00:27;101283.80;;;10.54;76.30
62926;BME280;55732;52.248;-0.844;2023-04-30T04:02:53;101287.99;;;10.51;76.14
62926;BME280;55732;52.248;-0.844;2023-04-30T04:05:19;101287.64;;;10.48;76.22
62926;BME280;55732;52.248;-0.844;2023-04-30T04:07:44;101287.77;;;10.45;76.36
62926;BME280;55732;52.248;-0.844;2023-04-30T04:10:10;101285.45;;;10.43;76.40
62926;BME280;55732;52.248;-0.844;2023-04-30T04:12:35;101280.49;;;10.41;76.50
62926;BME280;55732;52.248;-0.844;2023-04-30T04:15:00;101283.65;;;10.39;76.66
62926;BME280;55732;52.248;-0.844;2023-04-30T04:17:26;101286.09;;;10.36;76.73
62926;BME280;55732;52.248;-0.844;2023-04-30T04:19:52;101286.59;;;10.34;76.76
62926;BME280;55732;52.248;-0.844;2023-04-30T04:22:17;101284.09;;;10.32;76.79
62926;BME280;55732;52.248;-0.844;2023-04-30T04:24:42;101282.48;;;10.29;76.97
62926;BME280;55732;52.248;-0.844;2023-04-30T04:27:08;101280.70;;;10.27;76.87
62926;BME280;55732;52.248;-0.844;2023-04-30T04:29:33;101285.27;;;10.26;77.01
62926;BME280;55732;52.248;-0.844;2023-04-30T04:31:58;101290.36;;;10.24;77.01
62926;BME280;55732;52.248;-0.844;2023-04-30T04:34:28;101289.10;;;10.22;77.23
62926;BME280;55732;52.248;-0.844;2023-04-30T04:36:54;101287.85;;;10.21;77.32
62926;BME280;55732;52.248;-0.844;2023-04-30T04:39:19;101288.00;;;10.19;77.31
62926;BME280;55732;52.248;-0.844;2023-04-30T04:41:45;101284.10;;;10.18;77.36
62926;BME280;55732;52.248;-0.844;2023-04-30T04:44:10;101280.58;;;10.17;77.44
62926;BME280;55732;52.248;-0.844;2023-04-30T04:46:35;101284.80;;;10.19;77.42
62926;BME280;55732;52.248;-0.844;2023-04-30T04:49:06;101284.27;;;10.18;77.55
62926;BME280;55732;52.248;-0.844;2023-04-30T04:51:32;101284.64;;;10.19;77.61
62926;BME280;55732;52.248;-0.844;2023-04-30T04:53:58;101288.19;;;10.20;77.76
62926;BME280;55732;52.248;-0.844;2023-04-30T04:56:23;101285.38;;;10.21;77.72
62926;BME280;55732;52.248;-0.844;2023-04-30T04:58:48;101283.48;;;10.24;77.74
62926;BME280;55732;52.248;-0.844;2023-04-30T05:01:14;101285.63;;;10.27;77.67
62926;BME280;55732;52.248;-0.844;2023-04-30T05:03:40;101283.88;;;10.28;77.74
62926;BME280;55732;52.248;-0.844;2023-04-30T05:06:05;101291.89;;;10.35;77.78
62926;BME280;55732;52.248;-0.844;2023-04-30T05:08:31;101284.89;;;10.40;77.66
62926;BME280;55732;52.248;-0.844;2023-04-30T05:10:57;101287.63;;;10.48;77.52
62926;BME280;55732;52.248;-0.844;2023-04-30T05:13:22;101290.80;;;10.67;77.27
62926;BME280;55732;52.248;-0.844;2023-04-30T05:15:52;101288.27;;;10.78;76.89
62926;BME280;55732;52.248;-0.844;2023-04-30T05:18:18;101292.63;;;10.93;76.56
62926;BME280;55732;52.248;-0.844;2023-04-30T05:20:43;101291.62;;;11.21;76.05
62926;BME280;55732;52.248;-0.844;2023-04-30T05:23:09;101285.11;;;11.76;75.20
62926;BME280;55732;52.248;-0.844;2023-04-30T05:25:35;101282.29;;;12.12;74.52
62926;BME280;55732;52.248;-0.844;2023-04-30T05:28:01;101289.04;;;12.26;73.61
62926;BME280;55732;52.248;-0.844;2023-04-30T05:30:27;101287.27;;;12.28;73.21
62926;BME280;55732;52.248;-0.844;2023-04-30T05:32:54;101288.02;;;12.34;72.86
62926;BME280;55732;52.248;-0.844;2023-04-30T05:35:20;101292.09;;;12.46;72.64
62926;BME280;55732;52.248;-0.844;2023-04-30T05:37:45;101287.88;;;12.55;72.42
62926;BME280;55732;52.248;-0.844;2023-04-30T05:40:11;101292.11;;;12.53;72.09
62926;BME280;55732;52.248;-0.844;2023-04-30T05:42:37;101290.88;;;12.48;71.67
62926;BME280;55732;52.248;-0.844;2023-04-30T05:45:05;101292.46;;;12.52;71.53
62926;BME280;55732;52.248;-0.844;2023-04-30T05:47:30;101292.67;;;12.71;71.34
62926;BME280;55732;52.248;-0.844;2023-04-30T05:49:56;101286.29;;;13.52;70.39
62926;BME280;55732;52.248;-0.844;2023-04-30T05:52:22;101288.27;;;14.44;68.48
62926;BME280;55732;52.248;-0.844;2023-04-30T05:54:47;101288.39;;;14.82;67.10
62926;BME280;55732;52.248;-0.844;2023-04-30T05:57:13;101281.39;;;15.34;65.88
62926;BME280;55732;52.248;-0.844;2023-04-30T05:59:38;101277.21;;;15.92;64.06
62926;BME280;55732;52.248;-0.844;2023-04-30T06:02:05;101275.42;;;17.05;62.02
62926;BME280;55732;52.248;-0.844;2023-04-30T06:04:31;101272.83;;;18.31;59.31
62926;BME280;55732;52.248;-0.844;2023-04-30T06:06:56;101276.70;;;18.96;57.45
62926;BME280;55732;52.248;-0.844;2023-04-30T06:09:21;101271.84;;;19.66;55.53
62926;BME280;55732;52.248;-0.844;2023-04-30T06:11:47;101273.90;;;20.12;54.15
62926;BME280;55732;52.248;-0.844;2023-04-30T06:14:18;101274.41;;;19.89;53.73
62926;BME280;55732;52.248;-0.844;2023-04-30T06:16:44;101281.80;;;19.34;53.95
62926;BME280;55732;52.248;-0.844;2023-04-30T06:19:10;101282.62;;;18.95;54.30
62926;BME280;55732;52.248;-0.844;2023-04-30T06:21:36;101287.26;;;18.73;53.99
62926;BME280;55732;52.248;-0.844;2023-04-30T06:24:02;101283.25;;;18.52;54.11
62926;BME280;55732;52.248;-0.844;2023-04-30T06:26:27;101285.15;;;18.39;53.96
62926;BME280;55732;52.248;-0.844;2023-04-30T06:28:53;101285.98;;;18.42;54.23
62926;BME280;55732;52.248;-0.844;2023-04-30T06:31:18;101282.20;;;18.43;53.91
62926;BME280;55732;52.248;-0.844;2023-04-30T06:33:43;101283.31;;;18.25;53.78
62926;BME280;55732;52.248;-0.844;2023-04-30T06:36:09;101287.33;;;17.87;54.16
62926;BME280;55732;52.248;-0.844;2023-04-30T06:38:34;101291.30;;;17.35;54.98
62926;BME280;55732;52.248;-0.844;2023-04-30T06:41:00;101290.23;;;16.94;55.83
62926;BME280;55732;52.248;-0.844;2023-04-30T06:43:25;101293.90;;;16.62;56.34
62926;BME280;55732;52.248;-0.844;2023-04-30T06:45:51;101296.64;;;16.54;56.93
62926;BME280;55732;52.248;-0.844;2023-04-30T06:48:16;101297.34;;;16.56;57.22
62926;BME280;55732;52.248;-0.844;2023-04-30T06:50:41;101292.79;;;16.67;57.24
62926;BME280;55732;52.248;-0.844;2023-04-30T06:53:13;101288.80;;;16.73;57.16
62926;BME280;55732;52.248;-0.844;2023-04-30T06:55:43;101286.96;;;16.62;57.28
62926;BME280;55732;52.248;-0.844;2023-04-30T06:58:10;101285.35;;;16.50;57.41
62926;BME280;55732;52.248;-0.844;2023-04-30T07:00:35;101287.48;;;16.51;57.38
62926;BME280;55732;52.248;-0.844;2023-04-30T07:03:01;101284.67;;;16.60;57.20
62926;BME280;55732;52.248;-0.844;2023-04-30T07:05:28;101285.58;;;16.72;57.15
62926;BME280;55732;52.248;-0.844;2023-04-30T07:07:54;101284.86;;;16.85;56.85
62926;BME280;55732;52.248;-0.844;2023-04-30T07:10:19;101287.25;;;17.02;56.84
62926;BME280;55732;52.248;-0.844;2023-04-30T07:12:45;101290.13;;;17.21;56.49
62926;BME280;55732;52.248;-0.844;2023-04-30T07:15:10;101293.17;;;17.29;56.30
62926;BME280;55732;52.248;-0.844;2023-04-30T07:17:36;101292.48;;;17.48;55.89
62926;BME280;55732;52.248;-0.844;2023-04-30T07:20:05;101293.73;;;17.58;55.58
62926;BME280;55732;52.248;-0.844;2023-04-30T07:22:31;101292.66;;;17.69;55.32
62926;BME280;55732;52.248;-0.844;2023-04-30T07:24:57;101292.64;;;17.59;55.48
62926;BME280;55732;52.248;-0.844;2023-04-30T07:27:22;101291.92;;;17.40;55.23
62926;BME280;55732;52.248;-0.844;2023-04-30T07:29:48;101294.16;;;17.45;55.28
62926;BME280;55732;52.248;-0.844;2023-04-30T07:32:13;101291.44;;;17.68;54.96
62926;BME280;55732;52.248;-0.844;2023-04-30T07:34:40;101288.83;;;18.01;54.52
62926;BME280;55732;52.248;-0.844;2023-04-30T07:37:07;101290.39;;;18.28;54.18
62926;BME280;55732;52.248;-0.844;2023-04-30T07:39:33;101291.41;;;18.46;53.35
62926;BME280;55732;52.248;-0.844;2023-04-30T07:41:59;101290.52;;;18.63;52.66
62926;BME280;55732;52.248;-0.844;2023-04-30T07:44:27;101292.14;;;18.85;52.45
62926;BME280;55732;52.248;-0.844;2023-04-30T07:46:52;101288.38;;;19.14;52.43
62926;BME280;55732;52.248;-0.844;2023-04-30T07:49:18;101289.40;;;19.58;51.71
62926;BME280;55732;52.248;-0.844;2023-04-30T07:51:43;101286.36;;;20.27;50.45
62926;BME280;55732;52.248;-0.844;2023-04-30T07:54:09;101283.84;;;20.57;49.62
62926;BME280;55732;52.248;-0.844;2023-04-30T07:56:35;101284.89;;;21.54;47.82
62926;BME280;55732;52.248;-0.844;2023-04-30T07:59:00;101286.94;;;22.85;45.55
62926;BME280;55732;52.248;-0.844;2023-04-30T08:01:25;101284.34;;;23.76;43.60
62926;BME280;55732;52.248;-0.844;2023-04-30T08:03:51;101282.27;;;24.09;41.85
62926;BME280;55732;52.248;-0.844;2023-04-30T08:06:16;101286.77;;;24.55;42.01
62926;BME280;55732;52.248;-0.844;2023-04-30T08:08:41;101283.38;;;25.56;40.57
62926;BME280;55732;52.248;-0.844;2023-04-30T08:11:07;101280.23;;;26.08;39.96
62926;BME280;55732;52.248;-0.844;2023-04-30T08:13:32;101284.06;;;27.00;38.38
62926;BME280;55732;52.248;-0.844;2023-04-30T08:15:58;101278.42;;;27.76;37.19
62926;BME280;55732;52.248;-0.844;2023-04-30T08:18:23;101281.27;;;28.51;36.20
62926;BME280;55732;52.248;-0.844;2023-04-30T08:20:49;101277.52;;;29.56;34.38
62926;BME280;55732;52.248;-0.844;2023-04-30T08:23:14;101279.48;;;30.07;33.33
62926;BME280;55732;52.248;-0.844;2023-04-30T08:25:41;101285.04;;;30.63;32.22
62926;BME280;55732;52.248;-0.844;2023-04-30T08:28:06;101282.17;;;30.45;32.41
62926;BME280;55732;52.248;-0.844;2023-04-30T08:30:31;101285.64;;;29.64;33.04
62926;BME280;55732;52.248;-0.844;2023-04-30T08:32:57;101279.41;;;29.39;32.71
62926;BME280;55732;52.248;-0.844;2023-04-30T08:35:22;101279.79;;;29.07;32.24
62926;BME280;55732;52.248;-0.844;2023-04-30T08:37:48;101283.25;;;28.40;32.72
62926;BME280;55732;52.248;-0.844;2023-04-30T08:40:13;101283.59;;;29.12;32.42
62926;BME280;55732;52.248;-0.844;2023-04-30T08:42:45;101280.13;;;30.23;31.06
62926;BME280;55732;52.248;-0.844;2023-04-30T08:45:14;101280.41;;;30.77;29.91
62926;BME280;55732;52.248;-0.844;2023-04-30T08:47:40;101280.34;;;30.63;29.26
62926;BME280;55732;52.248;-0.844;2023-04-30T08:50:06;101278.80;;;30.09;29.47
62926;BME280;55732;52.248;-0.844;2023-04-30T08:52:33;101278.28;;;29.63;29.50
62926;BME280;55732;52.248;-0.844;2023-04-30T08:55:00;101279.09;;;29.06;30.33
62926;BME280;55732;52.248;-0.844;2023-04-30T08:57:26;101280.13;;;28.12;30.86
62926;BME280;55732;52.248;-0.844;2023-04-30T08:59:53;101281.33;;;27.31;31.77
62926;BME280;55732;52.248;-0.844;2023-04-30T09:02:18;101279.38;;;26.97;32.19
62926;BME280;55732;52.248;-0.844;2023-04-30T09:04:45;101280.77;;;26.44;33.27
62926;BME280;55732;52.248;-0.844;2023-04-30T09:07:12;101277.48;;;25.99;33.82
62926;BME280;55732;52.248;-0.844;2023-04-30T09:09:39;101276.75;;;25.93;33.71
62926;BME280;55732;52.248;-0.844;2023-04-30T09:12:12;101273.31;;;26.06;33.77
62926;BME280;55732;52.248;-0.844;2023-04-30T09:14:39;101271.54;;;26.45;33.35
62926;BME280;55732;52.248;-0.844;2023-04-30T09:17:05;101272.83;;;26.34;33.71
62926;BME280;55732;52.248;-0.844;2023-04-30T09:19:33;101271.09;;;25.66;34.57
62926;BME280;55732;52.248;-0.844;2023-04-30T09:22:17;101267.16;;;24.81;35.62
62926;BME280;55732;52.248;-0.844;2023-04-30T09:24:47;101269.05;;;24.19;36.31
62926;BME280;55732;52.248;-0.844;2023-04-30T09:27:31;101265.92;;;23.86;37.24
62926;BME280;55732;52.248;-0.844;2023-04-30T09:29:56;101260.58;;;23.85;37.58
62926;BME280;55732;52.248;-0.844;2023-04-30T09:32:22;101260.20;;;24.08;37.70
62926;BME280;55732;52.248;-0.844;2023-04-30T09:34:47;101261.27;;;24.01;37.64
62926;BME280;55732;52.248;-0.844;2023-04-30T09:37:13;101261.45;;;23.69;37.60
62926;BME280;55732;52.248;-0.844;2023-04-30T09:42:13;101262.54;;;22.89;38.99
62926;BME280;55732;52.248;-0.844;2023-04-30T09:44:39;101261.98;;;22.36;39.38
62926;BME280;55732;52.248;-0.844;2023-04-30T09:47:14;101259.28;;;22.41;39.73
62926;BME280;55732;52.248;-0.844;2023-04-30T09:49:42;101254.87;;;22.07;40.24
62926;BME280;55732;52.248;-0.844;2023-04-30T09:52:09;101247.67;;;21.68;40.94
62926;BME280;55732;52.248;-0.844;2023-04-30T09:54:35;101248.15;;;21.70;41.41
62926;BME280;55732;52.248;-0.844;2023-04-30T09:57:02;101247.24;;;22.09;40.93
62926;BME280;55732;52.248;-0.844;2023-04-30T09:59:34;101246.60;;;22.30;40.76
62926;BME280;55732;52.248;-0.844;2023-04-30T10:02:03;101250.15;;;22.27;40.92
62926;BME280;55732;52.248;-0.844;2023-04-30T10:07:03;101243.48;;;22.67;40.55
62926;BME280;55732;52.248;-0.844;2023-04-30T10:09:36;101241.52;;;23.19;40.19
62926;BME280;55732;52.248;-0.844;2023-04-30T10:12:06;101238.63;;;23.65;38.87
62926;BME280;55732;52.248;-0.844;2023-04-30T10:14:34;101235.79;;;23.99;37.58
62926;BME280;55732;52.248;-0.844;2023-04-30T10:17:07;101240.23;;;24.31;37.08
62926;BME280;55732;52.248;-0.844;2023-04-30T10:19:38;101236.52;;;24.70;36.64
62926;BME280;55732;52.248;-0.844;2023-04-30T10:22:06;101232.55;;;25.17;35.82
62926;BME280;55732;52.248;-0.844;2023-04-30T10:24:32;101226.38;;;25.46;35.25
62926;BME280;55732;52.248;-0.844;2023-04-30T10:26:58;101225.77;;;25.43;34.74
62926;BME280;55732;52.248;-0.844;2023-04-30T10:29:24;101228.57;;;24.96;34.97
62926;BME280;55732;52.248;-0.844;2023-04-30T10:31:50;101228.14;;;24.62;35.87
62926;BME280;55732;52.248;-0.844;2023-04-30T10:35:02;101225.98;;;24.32;36.50
62926;BME280;55732;52.248;-0.844;2023-04-30T10:37:54;101220.38;;;23.79;37.78
62926;BME280;55732;52.248;-0.844;2023-04-30T10:40:21;101212.83;;;23.38;38.12
62926;BME280;55732;52.248;-0.844;2023-04-30T10:42:52;101208.54;;;23.09;38.66
62926;BME280;55732;52.248;-0.844;2023-04-30T10:45:33;101213.38;;;22.97;39.05
62926;BME280;55732;52.248;-0.844;2023-04-30T10:48:01;101209.81;;;22.83;38.98
62926;BME280;55732;52.248;-0.844;2023-04-30T10:50:28;101208.39;;;22.57;39.36
62926;BME280;55732;52.248;-0.844;2023-04-30T10:53:01;101204.85;;;22.33;40.00
62926;BME280;55732;52.248;-0.844;2023-04-30T10:55:29;101201.86;;;22.22;40.02
62926;BME280;55732;52.248;-0.844;2023-04-30T10:57:57;101199.36;;;22.14;40.11
62926;BME280;55732;52.248;-0.844;2023-04-30T11:00:27;101192.33;;;22.06;40.83
62926;BME280;55732;52.248;-0.844;2023-04-30T11:03:11;101189.29;;;22.14;40.95
62926;BME280;55732;52.248;-0.844;2023-04-30T11:05:37;101188.19;;;22.10;40.22
62926;BME280;55732;52.248;-0.844;2023-04-30T11:08:04;101188.33;;;21.97;40.17
62926;BME280;55732;52.248;-0.844;2023-04-30T11:10:34;101183.20;;;21.90;40.52
62926;BME280;55732;52.248;-0.844;2023-04-30T11:13:06;101181.21;;;21.77;40.55
62926;BME280;55732;52.248;-0.844;2023-04-30T11:15:39;101177.44;;;21.58;40.86
62926;BME280;55732;52.248;-0.844;2023-04-30T11:18:06;101173.33;;;21.53;40.80
62926;BME280;55732;52.248;-0.844;2023-04-30T11:20:32;101171.69;;;21.44;40.94
62926;BME280;55732;52.248;-0.844;2023-04-30T11:23:13;101172.88;;;21.26;41.12
62926;BME280;55732;52.248;-0.844;2023-04-30T11:25:43;101171.38;;;20.97;41.51
62926;BME280;55732;52.248;-0.844;2023-04-30T11:28:17;101171.71;;;20.71;42.47
62926;BME280;55732;52.248;-0.844;2023-04-30T11:30:56;101171.06;;;20.48;43.37
62926;BME280;55732;52.248;-0.844;2023-04-30T11:33:28;101169.32;;;20.18;44.03
62926;BME280;55732;52.248;-0.844;2023-04-30T11:36:00;101165.58;;;19.95;44.76
62926;BME280;55732;52.248;-0.844;2023-04-30T11:38:33;101163.74;;;19.91;44.95
62926;BME280;55732;52.248;-0.844;2023-04-30T11:41:10;101163.91;;;19.85;45.04
62926;BME280;55732;52.248;-0.844;2023-04-30T11:43:40;101164.59;;;19.74;45.14
62926;BME280;55732;52.248;-0.844;2023-04-30T11:46:10;101155.97;;;19.64;44.76
62926;BME280;55732;52.248;-0.844;2023-04-30T11:48:38;101161.98;;;19.54;45.16
62926;BME280;55732;52.248;-0.844;2023-04-30T11:51:14;101161.52;;;19.44;45.43
62926;BME280;55732;52.248;-0.844;2023-04-30T11:53:40;101161.50;;;19.32;45.69
62926;BME280;55732;52.248;-0.844;2023-04-30T11:56:06;101160.08;;;19.19;45.83
62926;BME280;55732;52.248;-0.844;2023-04-30T11:58:33;101162.67;;;19.09;46.16
62926;BME280;55732;52.248;-0.844;2023-04-30T12:00:59;101159.88;;;19.00;46.23
62926;BME280;55732;52.248;-0.844;2023-04-30T12:03:25;101158.93;;;18.96;46.59
62926;BME280;55732;52.248;-0.844;2023-04-30T12:05:51;101156.80;;;18.95;46.77
62926;BME280;55732;52.248;-0.844;2023-04-30T12:08:18;101155.64;;;18.98;46.94
62926;BME280;55732;52.248;-0.844;2023-04-30T12:10:43;101153.10;;;19.06;47.15
62926;BME280;55732;52.248;-0.844;2023-04-30T12:13:12;101151.70;;;19.12;47.14
62926;BME280;55732;52.248;-0.844;2023-04-30T12:15:38;101155.54;;;19.15;47.02
62926;BME280;55732;52.248;-0.844;2023-04-30T12:18:13;101154.38;;;19.25;47.35
62926;BME280;55732;52.248;-0.844;2023-04-30T12:20:40;101153.98;;;19.39;47.28
62926;BME280;55732;52.248;-0.844;2023-04-30T12:23:07;101155.39;;;19.46;46.88
62926;BME280;55732;52.248;-0.844;2023-04-30T12:25:39;101156.48;;;19.45;46.74
62926;BME280;55732;52.248;-0.844;2023-04-30T12:28:05;101155.45;;;19.44;46.85
62926;BME280;55732;52.248;-0.844;2023-04-30T12:30:31;101151.91;;;19.42;47.04
62926;BME280;55732;52.248;-0.844;2023-04-30T12:32:58;101147.45;;;19.42;47.05
62926;BME280;55732;52.248;-0.844;2023-04-30T12:35:27;101150.05;;;19.52;46.95
62926;BME280;55732;52.248;-0.844;2023-04-30T12:38:04;101147.72;;;19.65;46.87
62926;BME280;55732;52.248;-0.844;2023-04-30T12:40:30;101141.73;;;19.80;46.85
62926;BME280;55732;52.248;-0.844;2023-04-30T12:43:06;101142.23;;;19.98;46.95
62926;BME280;55732;52.248;-0.844;2023-04-30T12:45:49;101136.29;;;20.16;46.40
62926;BME280;55732;52.248;-0.844;2023-04-30T12:48:17;101134.17;;;20.27;46.23
62926;BME280;55732;52.248;-0.844;2023-04-30T12:51:01;101137.69;;;20.35;46.31
62926;BME280;55732;52.248;-0.844;2023-04-30T12:53:27;101133.97;;;20.33;45.82
62926;BME280;55732;52.248;-0.844;2023-04-30T12:58:36;101135.27;;;20.15;46.02
62926;BME280;55732;52.248;-0.844;2023-04-30T13:01:02;101131.66;;;20.04;46.04
62926;BME280;55732;52.248;-0.844;2023-04-30T13:03:27;101131.52;;;19.86;46.31
62926;BME280;55732;52.248;-0.844;2023-04-30T13:05:53;101133.25;;;19.70;47.14